Time;durP1;ratioP1;P1;durP2;ratioP2;P2;SDS_P1;SDS_P2;PMS_P1;PMS_P2;Temp;Humidity;BMP_temperature;BMP_pressure;BME280_temperature;BME280_humidity;BME280_pressure;Samples;Min_cycle;Max_cycle;Signal;HPM_P1;HPM_P2
2021/05/25 00:00:49;;;;;;;;;;;;;;;13.74;61.41;97813.77;1704951;83;22006;-89
2021/05/25 00:03:16;;;;;;;;;;;;;;;13.72;61.55;97809.12;1706631;83;22960;-89
2021/05/25 00:05:42;;;;;;;;;;;;;;;13.76;61.69;97814.91;1690749;82;24402;-87
2021/05/25 00:08:17;;;;;;;;;;;;;;;13.77;61.80;97806.06;1744021;80;20311;-88
2021/05/25 00:10:43;;;;;;;;;;;;;;;13.76;61.88;97798.66;1747400;80;24630;-88
2021/05/25 00:13:10;;;;;;;;;;;;;;;13.71;61.99;97798.25;1732274;80;22059;-87
2021/05/25 00:15:36;;;;;;;;;;;;;;;13.73;62.03;97793.69;1718163;80;26079;-87
2021/05/25 00:18:03;;;;;;;;;;;;;;;13.68;62.07;97790.66;1737481;80;24624;-89
2021/05/25 00:20:32;;;;;;;;;;;;;;;13.72;62.13;97794.66;1763076;80;20234;-88
2021/05/25 00:22:58;;;;;;;;;;;;;;;13.68;62.20;97783.25;1764232;80;24796;-89
2021/05/25 00:25:25;;;;;;;;;;;;;;;13.69;62.26;97777.03;1731320;82;22207;-89
2021/05/25 00:27:53;;;;;;;;;;;;;;;13.60;62.39;97781.33;1761015;80;25996;-89
2021/05/25 00:30:19;;;;;;;;;;;;;;;13.61;62.43;97779.52;1756409;80;24395;-89
2021/05/25 00:32:46;;;;;;;;;;;;;;;13.73;62.45;97776.59;1750896;80;20247;-89
2021/05/25 00:35:13;;;;;;;;;;;;;;;13.80;62.47;97772.92;1755884;80;25565;-88
2021/05/25 00:37:45;;;;;;;;;;;;;;;13.86;62.49;97767.54;1758328;80;21988;-87
2021/05/25 00:40:14;;;;;;;;;;;;;;;13.86;62.49;97767.54;1751692;80;26142;-89
2021/05/25 00:42:42;;;;;;;;;;;;;;;13.84;62.47;97767.70;1758125;80;24439;-89
2021/05/25 00:45:10;;;;;;;;;;;;;;;13.82;62.48;97761.75;1753630;80;20218;-89
2021/05/25 00:47:37;;;;;;;;;;;;;;;13.88;62.50;97770.87;1759247;80;24927;-89
2021/05/25 00:50:11;;;;;;;;;;;;;;;13.99;62.47;97769.38;1758989;80;21967;-89
2021/05/25 00:52:42;;;;;;;;;;;;;;;14.06;62.44;97773.09;1754129;80;26906;-89
2021/05/25 00:55:12;;;;;;;;;;;;;;;14.10;62.34;97770.02;1751953;80;24444;-89
2021/05/25 00:57:38;;;;;;;;;;;;;;;14.14;62.25;97776.64;1754100;80;20215;-89
2021/05/25 01:00:22;;;;;;;;;;;;;;;14.21;62.17;97779.52;1754893;80;24760;-89
2021/05/25 01:02:50;;;;;;;;;;;;;;;14.26;62.11;97783.86;1752881;80;21978;-89
2021/05/25 01:05:17;;;;;;;;;;;;;;;14.32;62.09;97781.97;1748025;80;26563;-89
2021/05/25 01:07:44;;;;;;;;;;;;;;;14.33;62.02;97774.42;1752844;80;24490;-89
2021/05/25 01:10:11;;;;;;;;;;;;;;;14.34;61.95;97773.45;1752394;80;20274;-90
2021/05/25 01:12:47;;;;;;;;;;;;;;;14.34;61.87;97773.94;1759583;80;24840;-89
2021/05/25 01:15:09;;;;;;;;;;;;;;;14.35;61.75;97775.08;1749856;80;22739;-89
2021/05/25 01:17:34;;;;;;;;;;;;;;;14.40;61.70;97775.50;1757614;80;26191;-89
2021/05/25 01:20:01;;;;;;;;;;;;;;;14.39;61.70;97767.28;1745641;80;20416;-89
2021/05/25 01:22:34;;;;;;;;;;;;;;;14.38;61.74;97756.89;1735873;80;20276;-87
2021/05/25 01:25:00;;;;;;;;;;;;;;;14.32;61.83;97741.17;1740784;80;24782;-90
2021/05/25 01:27:32;;;;;;;;;;;;;;;14.25;61.89;97758.03;1735802;80;20306;-89
2021/05/25 01:30:02;;;;;;;;;;;;;;;14.22;61.98;97764.09;1713263;82;21412;-90
2021/05/25 01:32:30;;;;;;;;;;;;;;;14.19;62.07;97762.55;1747363;80;24708;-88
2021/05/25 01:34:56;;;;;;;;;;;;;;;14.11;62.13;97762.96;1752187;80;20248;-88
2021/05/25 01:37:22;;;;;;;;;;;;;;;14.09;62.23;97759.63;1740288;80;24841;-89
2021/05/25 01:39:53;;;;;;;;;;;;;;;14.08;62.34;97756.17;1740655;80;21961;-88
2021/05/25 01:42:16;;;;;;;;;;;;;;;14.06;62.41;97761.25;1741564;80;25389;-89
2021/05/25 01:44:42;;;;;;;;;;;;;;;14.05;62.51;97769.63;1743664;79;24498;-88
2021/05/25 01:47:09;;;;;;;;;;;;;;;14.06;62.59;97774.41;1744210;80;20262;-89
2021/05/25 01:49:34;;;;;;;;;;;;;;;14.03;62.65;97775.51;1750670;80;20277;-90
2021/05/25 01:52:01;;;;;;;;;;;;;;;14.04;62.73;97785.55;1747786;80;20400;-89
2021/05/25 01:54:27;;;;;;;;;;;;;;;14.01;62.77;97795.89;1750072;80;26597;-89
2021/05/25 01:56:54;;;;;;;;;;;;;;;13.98;62.83;97799.28;1739371;80;24498;-89
2021/05/25 01:59:20;;;;;;;;;;;;;;;13.95;62.91;97804.84;1737719;80;20222;-89
2021/05/25 02:01:47;;;;;;;;;;;;;;;13.90;62.99;97809.70;1738880;80;24787;-89
2021/05/25 02:04:13;;;;;;;;;;;;;;;13.86;63.05;97814.40;1744552;80;22045;-89
2021/05/25 02:06:42;;;;;;;;;;;;;;;13.87;63.16;97829.22;1740007;80;25995;-89
2021/05/25 02:09:08;;;;;;;;;;;;;;;13.82;63.27;97830.96;1742713;80;20761;-89
2021/05/25 02:11:36;;;;;;;;;;;;;;;13.78;63.44;97827.45;1733876;80;20572;-90
2021/05/25 02:14:04;;;;;;;;;;;;;;;13.72;63.58;97828.01;1734742;80;24161;-90
2021/05/25 02:16:30;;;;;;;;;;;;;;;13.71;63.77;97828.49;1747917;79;22264;-90
2021/05/25 02:18:56;;;;;;;;;;;;;;;13.71;63.96;97828.49;1733873;80;25951;-89
2021/05/25 02:21:22;;;;;;;;;;;;;;;13.64;64.15;97827.39;1744507;80;20327;-89
2021/05/25 02:23:53;;;;;;;;;;;;;;;13.55;64.36;97828.24;1741548;80;20283;-88
2021/05/25 02:26:20;;;;;;;;;;;;;;;13.48;64.56;97840.28;1743886;79;25016;-88
2021/05/25 02:28:47;;;;;;;;;;;;;;;13.37;64.75;97841.73;1741611;80;22026;-87
2021/05/25 02:31:13;;;;;;;;;;;;;;;13.29;64.93;97833.73;1741148;80;26871;-87
2021/05/25 02:33:40;;;;;;;;;;;;;;;13.23;65.09;97830.34;1737350;80;24627;-91
2021/05/25 02:36:07;;;;;;;;;;;;;;;13.18;65.28;97828.61;1734295;80;20205;-91
2021/05/25 02:38:34;;;;;;;;;;;;;;;13.10;65.47;97838.45;1730748;80;20263;-89
2021/05/25 02:41:01;;;;;;;;;;;;;;;13.01;65.65;97840.59;1743545;80;20290;-89
2021/05/25 02:43:28;;;;;;;;;;;;;;;12.93;65.84;97836.02;1738876;80;25960;-89
2021/05/25 02:46:00;;;;;;;;;;;;;;;12.88;66.01;97827.72;1752637;79;24382;-90
2021/05/25 02:48:26;;;;;;;;;;;;;;;12.84;66.20;97819.77;1739033;80;20211;-90
2021/05/25 02:50:54;;;;;;;;;;;;;;;12.75;66.41;97825.84;1726896;80;20580;-89
2021/05/25 02:53:20;;;;;;;;;;;;;;;12.70;66.61;97829.36;1753574;80;22034;-90
2021/05/25 02:55:46;;;;;;;;;;;;;;;12.69;66.79;97815.88;1739209;80;26110;-90
2021/05/25 03:01:18;;;;;;;;;;;;;;;12.54;67.09;97814.61;1742950;80;20252;-92
2021/05/25 03:03:44;;;;;;;;;;;;;;;12.49;67.28;97811.56;1734705;80;24841;-89
2021/05/25 03:06:22;;;;;;;;;;;;;;;12.46;67.47;97816.58;1758367;80;22071;-91
2021/05/25 03:08:47;;;;;;;;;;;;;;;12.40;67.62;97814.97;1751839;79;26108;-90
2021/05/25 03:11:13;;;;;;;;;;;;;;;12.37;67.78;97818.70;1747416;80;20318;-90
2021/05/25 03:13:39;;;;;;;;;;;;;;;12.37;67.89;97820.50;1745382;80;20314;-89
2021/05/25 03:16:05;;;;;;;;;;;;;;;12.36;68.03;97816.20;1734736;80;24781;-89
2021/05/25 03:18:33;;;;;;;;;;;;;;;12.34;68.15;97815.02;1741887;80;20306;-90
2021/05/25 03:20:59;;;;;;;;;;;;;;;12.33;68.27;97806.80;1740748;80;25986;-87
2021/05/25 03:23:26;;;;;;;;;;;;;;;12.30;68.42;97816.73;1752290;80;24486;-91
2021/05/25 03:25:54;;;;;;;;;;;;;;;12.26;68.56;97812.25;1735289;80;20210;-91
2021/05/25 03:28:20;;;;;;;;;;;;;;;12.26;68.69;97805.69;1750926;80;24931;-90
2021/05/25 03:30:57;;;;;;;;;;;;;;;12.30;68.82;97803.61;1746718;79;22035;-90
2021/05/25 03:33:23;;;;;;;;;;;;;;;12.30;68.95;97793.95;1745755;80;25556;-90
2021/05/25 03:35:52;;;;;;;;;;;;;;;12.29;69.08;97783.59;1751093;80;20321;-89
2021/05/25 03:38:17;;;;;;;;;;;;;;;12.22;69.18;97775.92;1747506;80;20210;-90
2021/05/25 03:40:44;;;;;;;;;;;;;;;12.24;69.28;97776.59;1750591;79;24912;-89
2021/05/25 03:43:12;;;;;;;;;;;;;;;12.27;69.36;97777.66;1717118;80;20271;-89
2021/05/25 03:45:38;;;;;;;;;;;;;;;12.32;69.48;97766.28;1740152;80;25912;-89
2021/05/25 03:48:04;;;;;;;;;;;;;;;12.33;69.58;97766.13;1741363;80;24490;-90
2021/05/25 03:50:32;;;;;;;;;;;;;;;12.30;69.67;97774.28;1752078;79;20281;-90
2021/05/25 03:52:59;;;;;;;;;;;;;;;12.25;69.79;97787.45;1755680;80;25643;-91
2021/05/25 04:01:01;;;;;;;;;;;;;;;12.20;70.06;97810.15;1707628;82;24541;-87
2021/05/25 04:03:36;;;;;;;;;;;;;;;12.20;70.21;97808.00;1687726;83;20246;-88
2021/05/25 04:06:02;;;;;;;;;;;;;;;12.22;70.32;97808.72;1723950;82;25488;-90
2021/05/25 04:08:29;;;;;;;;;;;;;;;12.21;70.43;97814.44;1728285;82;21946;-91
2021/05/25 04:10:57;;;;;;;;;;;;;;;12.27;70.51;97817.02;1729409;82;25926;-91
2021/05/25 04:13:24;;;;;;;;;;;;;;;12.33;70.62;97821.22;1723951;82;24420;-91
2021/05/25 04:15:54;;;;;;;;;;;;;;;12.40;70.72;97817.59;1728792;82;20235;-91
2021/05/25 04:18:19;;;;;;;;;;;;;;;12.51;70.82;97818.80;1728230;82;25603;-90
2021/05/25 04:20:46;;;;;;;;;;;;;;;12.60;70.93;97823.23;1729810;82;22157;-87
2021/05/25 04:23:12;;;;;;;;;;;;;;;12.70;71.06;97828.53;1743103;80;26100;-87
2021/05/25 04:25:39;;;;;;;;;;;;;;;12.75;71.12;97828.47;1749099;80;25103;-88
2021/05/25 04:28:05;;;;;;;;;;;;;;;12.79;71.20;97825.08;1744689;80;20215;-89
2021/05/25 04:30:37;;;;;;;;;;;;;;;12.83;71.26;97828.61;1744121;80;24189;-90
2021/05/25 04:33:15;;;;;;;;;;;;;;;12.87;71.33;97831.81;1739412;80;21995;-91
2021/05/25 04:35:43;;;;;;;;;;;;;;;12.88;71.40;97837.39;1749380;80;25943;-89
2021/05/25 04:38:09;;;;;;;;;;;;;;;12.91;71.47;97835.34;1743546;80;24422;-87
2021/05/25 04:40:35;;;;;;;;;;;;;;;12.98;71.51;97841.69;1748821;79;20278;-87
2021/05/25 04:43:06;;;;;;;;;;;;;;;12.96;71.58;97846.27;1755063;80;24734;-91
2021/05/25 04:45:37;;;;;;;;;;;;;;;12.98;71.63;97850.88;1750529;80;22725;-91
2021/05/25 04:48:09;;;;;;;;;;;;;;;13.01;71.67;97853.73;1746205;80;26719;-90
2021/05/25 04:50:36;;;;;;;;;;;;;;;13.07;71.77;97858.92;1748478;80;24388;-91
2021/05/25 04:53:04;;;;;;;;;;;;;;;13.05;71.83;97849.86;1756912;80;20553;-89
2021/05/25 04:55:33;;;;;;;;;;;;;;;13.09;71.86;97849.92;1756410;80;24937;-91
2021/05/25 04:57:59;;;;;;;;;;;;;;;13.10;71.95;97860.78;1752028;80;22085;-89
2021/05/25 05:00:27;;;;;;;;;;;;;;;13.09;72.00;97864.38;1700976;80;25752;-90
2021/05/25 05:02:54;;;;;;;;;;;;;;;13.08;72.09;97865.36;1753788;80;24611;-89
2021/05/25 05:05:21;;;;;;;;;;;;;;;13.09;72.14;97873.56;1750801;80;20259;-91
2021/05/25 05:07:49;;;;;;;;;;;;;;;13.10;72.22;97871.77;1756288;80;24749;-89
2021/05/25 05:10:16;;;;;;;;;;;;;;;13.08;72.28;97871.09;1750024;79;22060;-87
2021/05/25 05:12:42;;;;;;;;;;;;;;;13.09;72.35;97870.94;1743577;80;25949;-88
2021/05/25 05:15:09;;;;;;;;;;;;;;;13.08;72.44;97874.56;1750046;80;24507;-88
2021/05/25 05:17:35;;;;;;;;;;;;;;;13.08;72.53;97878.98;1745468;80;20279;-89
2021/05/25 05:20:02;;;;;;;;;;;;;;;13.06;72.61;97878.27;1744465;80;24661;-87
2021/05/25 05:22:28;;;;;;;;;;;;;;;13.07;72.71;97871.58;1751102;80;21958;-91
2021/05/25 05:24:57;;;;;;;;;;;;;;;13.11;72.83;97883.95;1748758;80;20952;-90
2021/05/25 05:27:24;;;;;;;;;;;;;;;13.13;72.93;97893.88;1756566;80;24493;-91
2021/05/25 05:29:50;;;;;;;;;;;;;;;13.17;73.03;97897.41;1740769;80;20195;-88
2021/05/25 05:32:17;;;;;;;;;;;;;;;13.18;73.15;97891.67;1757433;79;24744;-91
2021/05/25 05:34:47;;;;;;;;;;;;;;;13.15;73.24;97880.94;1750981;80;22169;-92
2021/05/25 05:37:28;;;;;;;;;;;;;;;13.14;73.35;97871.42;1753024;80;25339;-91
2021/05/25 05:40:05;;;;;;;;;;;;;;;13.13;73.46;97874.17;1750575;80;24563;-90
2021/05/25 05:42:34;;;;;;;;;;;;;;;13.12;73.60;97872.03;1736510;79;20608;-91
2021/05/25 05:45:17;;;;;;;;;;;;;;;13.19;73.70;97874.95;1732927;79;24795;-89
2021/05/25 05:47:43;;;;;;;;;;;;;;;13.27;73.84;97871.97;1748360;80;22010;-90
2021/05/25 05:50:12;;;;;;;;;;;;;;;13.28;73.97;97876.27;1716201;80;26096;-91
2021/05/25 05:52:45;;;;;;;;;;;;;;;13.34;74.09;97876.19;1749145;80;24419;-91
2021/05/25 05:55:14;;;;;;;;;;;;;;;13.43;74.21;97874.52;1748164;80;20313;-92
2021/05/25 05:57:47;;;;;;;;;;;;;;;13.44;74.33;97874.39;1738350;80;25012;-88
2021/05/25 06:00:14;;;;;;;;;;;;;;;13.49;74.40;97879.23;1743474;80;21970;-88
2021/05/25 06:02:40;;;;;;;;;;;;;;;13.53;74.50;97881.44;1750825;79;26015;-90
2021/05/25 06:05:15;;;;;;;;;;;;;;;13.58;74.59;97885.79;1747923;80;24562;-90
2021/05/25 06:07:41;;;;;;;;;;;;;;;13.61;74.67;97888.16;1754831;80;20237;-89
2021/05/25 06:10:09;;;;;;;;;;;;;;;13.66;74.76;97883.31;1750694;80;24965;-89
2021/05/25 06:12:36;;;;;;;;;;;;;;;13.75;74.87;97877.20;1749545;80;21976;-89
2021/05/25 06:15:02;;;;;;;;;;;;;;;13.86;74.97;97874.90;1749959;80;26147;-88
2021/05/25 06:17:28;;;;;;;;;;;;;;;13.94;75.11;97881.61;1743768;80;24402;-89
2021/05/25 06:19:55;;;;;;;;;;;;;;;14.05;75.20;97884.56;1746294;80;20282;-88
2021/05/25 06:22:22;;;;;;;;;;;;;;;14.09;75.29;97883.30;1760714;80;24840;-89
2021/05/25 06:24:49;;;;;;;;;;;;;;;14.08;75.32;97879.00;1736459;80;21962;-89
2021/05/25 06:27:16;;;;;;;;;;;;;;;14.12;75.36;97873.83;1751325;80;25917;-89
2021/05/25 06:29:46;;;;;;;;;;;;;;;14.17;75.44;97876.85;1759995;80;24548;-89
2021/05/25 06:34:48;;;;;;;;;;;;;;;14.21;75.54;97882.17;1750269;79;24865;-91
2021/05/25 06:37:14;;;;;;;;;;;;;;;14.20;75.58;97883.13;1740675;80;22127;-91
2021/05/25 06:39:42;;;;;;;;;;;;;;;14.19;75.62;97886.25;1736438;80;20995;-88
2021/05/25 06:42:15;;;;;;;;;;;;;;;14.24;75.64;97885.81;1761304;80;20366;-89
2021/05/25 06:44:55;;;;;;;;;;;;;;;14.31;75.74;97880.81;1736330;80;20242;-91
2021/05/25 06:47:43;;;;;;;;;;;;;;;14.37;75.85;97875.84;1750529;80;24722;-90
2021/05/25 06:50:09;;;;;;;;;;;;;;;14.39;75.97;97878.34;1747656;79;22089;-90
2021/05/25 06:52:35;;;;;;;;;;;;;;;14.44;76.07;97874.78;1742885;80;26009;-90
2021/05/25 06:55:03;;;;;;;;;;;;;;;14.45;76.15;97873.33;1766651;80;24391;-89
2021/05/25 06:57:29;;;;;;;;;;;;;;;14.51;76.22;97877.98;1749505;80;20238;-91
2021/05/25 06:59:57;;;;;;;;;;;;;;;14.55;76.29;97891.23;1746179;80;25297;-91
2021/05/25 07:02:40;;;;;;;;;;;;;;;14.58;76.36;97892.73;1743051;80;22100;-91
2021/05/25 07:05:12;;;;;;;;;;;;;;;14.63;76.42;97902.33;1740479;81;25977;-90
2021/05/25 07:07:38;;;;;;;;;;;;;;;14.71;76.48;97898.50;1760429;80;24513;-90
2021/05/25 07:10:26;;;;;;;;;;;;;;;14.75;76.52;97893.76;1752476;80;20401;-90
2021/05/25 07:13:12;;;;;;;;;;;;;;;14.82;76.61;97899.63;1780181;80;24897;-90
2021/05/25 07:15:40;;;;;;;;;;;;;;;14.83;76.66;97909.67;1741743;81;22112;-91
2021/05/25 07:18:06;;;;;;;;;;;;;;;14.84;76.67;97906.88;1742600;80;26020;-91
2021/05/25 07:20:33;;;;;;;;;;;;;;;14.81;76.72;97910.30;1760055;80;24400;-91
2021/05/25 07:22:59;;;;;;;;;;;;;;;14.72;76.72;97912.02;1736049;80;20268;-92
2021/05/25 07:25:40;;;;;;;;;;;;;;;14.65;76.69;97920.98;1748076;80;24850;-91
2021/05/25 07:28:11;;;;;;;;;;;;;;;14.61;76.74;97918.78;1738186;80;22106;-91
2021/05/25 07:30:37;;;;;;;;;;;;;;;14.49;76.73;97925.20;1723764;82;26029;-91
2021/05/25 07:33:09;;;;;;;;;;;;;;;14.45;76.71;97932.56;1750233;80;20291;-91
2021/05/25 07:35:35;;;;;;;;;;;;;;;14.45;76.74;97936.52;1748376;80;20272;-91
2021/05/25 07:38:01;;;;;;;;;;;;;;;14.39;76.79;97931.82;1740314;80;20443;-91
2021/05/25 07:40:27;;;;;;;;;;;;;;;14.36;76.81;97929.42;1730935;80;22135;-92
2021/05/25 07:42:53;;;;;;;;;;;;;;;14.40;76.87;97927.39;1751926;80;26028;-91
2021/05/25 07:45:22;;;;;;;;;;;;;;;14.41;76.96;97932.97;1739724;79;24529;-92
2021/05/25 07:47:48;;;;;;;;;;;;;;;14.43;77.02;97929.23;1747468;80;20288;-90
2021/05/25 07:50:15;;;;;;;;;;;;;;;14.45;77.09;97935.69;1718528;80;20235;-90
2021/05/25 07:52:42;;;;;;;;;;;;;;;14.50;77.17;97930.33;1742313;80;21954;-91
2021/05/25 07:55:10;;;;;;;;;;;;;;;14.59;77.26;97929.94;1736282;80;25907;-90
2021/05/25 07:57:36;;;;;;;;;;;;;;;14.61;77.33;97934.59;1740235;80;24402;-89
2021/05/25 08:00:04;;;;;;;;;;;;;;;14.65;77.35;97936.78;1741427;80;20556;-90
2021/05/25 08:02:30;;;;;;;;;;;;;;;14.73;77.41;97939.19;1721375;81;24750;-88
2021/05/25 08:05:06;;;;;;;;;;;;;;;14.72;77.46;97938.84;1737467;80;20337;-88
2021/05/25 08:07:33;;;;;;;;;;;;;;;14.69;77.45;97940.43;1741331;80;26972;-89
2021/05/25 08:09:59;;;;;;;;;;;;;;;14.67;77.49;97946.35;1738529;80;24384;-89
2021/05/25 08:12:25;;;;;;;;;;;;;;;14.63;77.50;97950.57;1739669;79;20226;-89
2021/05/25 08:14:52;;;;;;;;;;;;;;;14.61;77.48;97953.86;1735417;79;24839;-89
2021/05/25 08:17:22;;;;;;;;;;;;;;;14.65;77.52;97960.97;1744550;80;21962;-89
2021/05/25 08:19:52;;;;;;;;;;;;;;;14.64;77.52;97960.63;1703223;81;24231;-90
2021/05/25 08:22:25;;;;;;;;;;;;;;;14.63;77.55;97962.91;1735207;80;24476;-90
2021/05/25 08:24:51;;;;;;;;;;;;;;;14.61;77.57;97968.34;1730194;82;20246;-91
2021/05/25 08:27:18;;;;;;;;;;;;;;;14.62;77.59;97969.98;1732686;81;20233;-91
2021/05/25 08:29:50;;;;;;;;;;;;;;;14.59;77.60;97966.33;1728275;82;22684;-91
2021/05/25 08:32:17;;;;;;;;;;;;;;;14.57;77.61;97974.84;1715345;82;25799;-91
2021/05/25 08:34:43;;;;;;;;;;;;;;;14.56;77.62;97973.17;1721881;82;24387;-89
2021/05/25 08:37:09;;;;;;;;;;;;;;;14.54;77.60;97979.09;1705383;82;20211;-89
2021/05/25 08:39:35;;;;;;;;;;;;;;;14.52;77.60;97981.51;1730969;82;24767;-90
2021/05/25 08:42:02;;;;;;;;;;;;;;;14.48;77.57;97986.24;1727385;82;21995;-89
2021/05/25 08:44:29;;;;;;;;;;;;;;;14.47;77.59;97989.84;1723240;81;25912;-91
2021/05/25 08:46:57;;;;;;;;;;;;;;;14.46;77.60;97982.91;1714008;82;24993;-92
2021/05/25 08:49:24;;;;;;;;;;;;;;;14.41;77.59;97987.77;1731748;82;20195;-91
2021/05/25 08:51:51;;;;;;;;;;;;;;;14.40;77.61;97998.47;1720264;82;24772;-92
2021/05/25 08:54:18;;;;;;;;;;;;;;;14.38;77.57;97996.45;1722120;82;21934;-90
2021/05/25 08:56:44;;;;;;;;;;;;;;;14.35;77.59;98001.47;1726478;82;26016;-90
2021/05/25 08:59:10;;;;;;;;;;;;;;;14.34;77.61;97999.83;1723261;82;20305;-89
2021/05/25 09:01:40;;;;;;;;;;;;;;;14.38;77.64;98005.67;1727669;82;20227;-90
2021/05/25 09:04:17;;;;;;;;;;;;;;;14.34;77.65;98009.05;1729265;82;24639;-90
2021/05/25 09:06:44;;;;;;;;;;;;;;;14.34;77.67;98016.11;1729712;82;21912;-92
2021/05/25 09:09:15;;;;;;;;;;;;;;;14.29;77.69;98020.48;1729105;82;25932;-91
2021/05/25 09:12:04;;;;;;;;;;;;;;;14.21;77.72;98022.48;1731201;82;24721;-90
2021/05/25 09:14:35;;;;;;;;;;;;;;;14.15;77.76;98020.89;1729499;82;20358;-89
2021/05/25 09:17:18;;;;;;;;;;;;;;;14.10;77.80;98026.58;1726400;82;24779;-90
2021/05/25 09:19:51;;;;;;;;;;;;;;;14.12;77.89;98031.71;1724558;82;22127;-90
2021/05/25 09:22:34;;;;;;;;;;;;;;;14.10;77.99;98034.95;1713300;81;26162;-89
2021/05/25 09:25:08;;;;;;;;;;;;;;;14.05;78.04;98034.55;1729677;80;24682;-91
2021/05/25 09:27:37;;;;;;;;;;;;;;;14.01;78.10;98034.48;1754705;80;20283;-89
2021/05/25 09:30:14;;;;;;;;;;;;;;;14.04;78.17;98035.50;1747959;80;24823;-89
2021/05/25 09:32:42;;;;;;;;;;;;;;;14.07;78.24;98043.14;1745012;80;22192;-91
2021/05/25 09:35:11;;;;;;;;;;;;;;;14.08;78.33;98053.50;1748452;80;26131;-92
2021/05/25 09:37:43;;;;;;;;;;;;;;;14.10;78.38;98058.64;1758246;80;24527;-89
2021/05/25 09:40:10;;;;;;;;;;;;;;;14.07;78.46;98060.24;1761326;80;20262;-89
2021/05/25 09:42:36;;;;;;;;;;;;;;;14.01;78.50;98062.11;1750086;80;24741;-89
2021/05/25 09:45:04;;;;;;;;;;;;;;;13.95;78.55;98068.75;1758114;80;22280;-91
2021/05/25 09:47:34;;;;;;;;;;;;;;;13.94;78.58;98064.92;1751309;80;26153;-91
2021/05/25 09:50:01;;;;;;;;;;;;;;;13.93;78.65;98065.41;1751834;80;25324;-92
2021/05/25 09:52:28;;;;;;;;;;;;;;;13.96;78.69;98067.78;1752669;80;20233;-88
2021/05/25 09:54:57;;;;;;;;;;;;;;;13.95;78.75;98069.23;1753796;80;24938;-88
2021/05/25 09:57:24;;;;;;;;;;;;;;;13.93;78.74;98075.94;1738332;80;20212;-89
2021/05/25 09:59:59;;;;;;;;;;;;;;;13.95;78.72;98083.22;1751260;80;20987;-89
2021/05/25 10:02:25;;;;;;;;;;;;;;;13.92;78.69;98079.53;1752362;80;24506;-92
2021/05/25 10:04:59;;;;;;;;;;;;;;;13.92;78.64;98083.95;1750876;80;20258;-89
2021/05/25 10:07:33;;;;;;;;;;;;;;;13.88;78.60;98084.72;1751691;80;24904;-89
2021/05/25 10:09:59;;;;;;;;;;;;;;;13.85;78.51;98084.17;1758867;80;21956;-91
2021/05/25 10:12:27;;;;;;;;;;;;;;;13.84;78.44;98084.66;1747519;80;25991;-88
2021/05/25 10:14:53;;;;;;;;;;;;;;;13.82;78.37;98087.89;1749118;80;24389;-88
2021/05/25 10:20:08;;;;;;;;;;;;;;;13.80;78.20;98099.05;1745550;80;25484;-89
2021/05/25 10:22:41;;;;;;;;;;;;;;;13.75;78.11;98099.43;1742246;80;22050;-88
2021/05/25 10:25:09;;;;;;;;;;;;;;;13.71;78.04;98102.47;1731686;82;25980;-88
2021/05/25 10:27:36;;;;;;;;;;;;;;;13.63;77.93;98104.47;1724790;82;24384;-88
2021/05/25 10:30:21;;;;;;;;;;;;;;;13.58;77.85;98116.36;1729379;82;20207;-89
2021/05/25 10:32:54;;;;;;;;;;;;;;;13.41;77.79;98149.36;1730016;80;24764;-88
2021/05/25 10:35:23;;;;;;;;;;;;;;;13.14;77.60;98160.91;1727895;82;22732;-89
2021/05/25 10:38:07;;;;;;;;;;;;;;;12.95;77.47;98158.95;1727300;82;25997;-88
2021/05/25 10:40:39;;;;;;;;;;;;;;;12.81;77.36;98161.91;1719887;82;24394;-89
2021/05/25 10:43:30;;;;;;;;;;;;;;;12.73;77.25;98166.95;1727351;81;20396;-88
2021/05/25 10:46:22;;;;;;;;;;;;;;;12.69;77.21;98166.86;1726305;82;24892;-89
2021/05/25 10:48:51;;;;;;;;;;;;;;;12.68;77.21;98171.75;1730634;82;22194;-89
2021/05/25 10:51:17;;;;;;;;;;;;;;;12.65;77.21;98176.80;1728093;81;26027;-88
2021/05/25 10:53:43;;;;;;;;;;;;;;;12.63;77.23;98187.05;1729313;82;20729;-88
2021/05/25 10:56:32;;;;;;;;;;;;;;;12.57;77.20;98187.91;1726778;82;20345;-88
2021/05/25 10:59:03;;;;;;;;;;;;;;;12.57;77.20;98187.91;1717507;82;24751;-88
2021/05/25 11:01:36;;;;;;;;;;;;;;;12.60;77.23;98189.44;1726093;80;22899;-88
2021/05/25 11:04:06;;;;;;;;;;;;;;;12.55;77.23;98187.66;1727229;82;26029;-88
2021/05/25 11:06:32;;;;;;;;;;;;;;;12.53;77.23;98183.05;1728903;82;24496;-87
2021/05/25 11:09:17;;;;;;;;;;;;;;;12.56;77.23;98178.84;1728759;82;20757;-88
2021/05/25 11:11:43;;;;;;;;;;;;;;;12.57;77.27;98182.66;1730647;82;24939;-87
2021/05/25 11:14:17;;;;;;;;;;;;;;;12.59;77.31;98178.61;1726108;82;21960;-89
2021/05/25 11:16:58;;;;;;;;;;;;;;;12.67;77.36;98180.58;1728960;82;26155;-89
2021/05/25 11:22:18;;;;;;;;;;;;;;;12.80;77.45;98186.02;1724470;81;20344;-90
2021/05/25 11:24:58;;;;;;;;;;;;;;;12.85;77.49;98181.22;1720070;82;24778;-92
2021/05/25 11:27:35;;;;;;;;;;;;;;;12.90;77.52;98175.58;1722544;82;22886;-88
2021/05/25 11:30:05;;;;;;;;;;;;;;;12.94;77.57;98172.56;1726047;81;23428;-89
2021/05/25 11:32:33;;;;;;;;;;;;;;;12.97;77.63;98164.45;1739833;80;24449;-88
2021/05/25 11:35:00;;;;;;;;;;;;;;;12.96;77.63;98153.58;1733955;80;20247;-89
2021/05/25 11:37:33;;;;;;;;;;;;;;;13.00;77.68;98142.33;1738322;80;24762;-89
2021/05/25 11:39:59;;;;;;;;;;;;;;;13.09;77.73;98157.30;1745477;80;21925;-91
2021/05/25 11:42:33;;;;;;;;;;;;;;;13.14;77.79;98167.00;1741312;80;25794;-90
2021/05/25 11:45:00;;;;;;;;;;;;;;;13.34;77.86;98181.06;1742926;80;24490;-89
2021/05/25 11:47:29;;;;;;;;;;;;;;;13.52;77.95;98186.08;1743030;80;20540;-90
2021/05/25 11:49:57;;;;;;;;;;;;;;;13.65;77.99;98185.36;1740352;80;24639;-90
2021/05/25 11:52:33;;;;;;;;;;;;;;;13.72;78.02;98186.98;1746400;80;21984;-89
2021/05/25 11:55:01;;;;;;;;;;;;;;;13.75;78.00;98188.02;1737894;79;25920;-88
2021/05/25 11:57:45;;;;;;;;;;;;;;;13.72;77.90;98186.50;1751682;80;24773;-92
2021/05/25 12:00:13;;;;;;;;;;;;;;;13.71;77.84;98191.88;1740666;80;20266;-91
2021/05/25 12:02:53;;;;;;;;;;;;;;;13.65;77.76;98188.47;1746277;80;24665;-92
2021/05/25 12:05:23;;;;;;;;;;;;;;;13.60;77.70;98194.13;1672154;83;22053;-89
2021/05/25 12:07:57;;;;;;;;;;;;;;;13.55;77.64;98195.00;1687282;83;25473;-92
2021/05/25 12:10:26;;;;;;;;;;;;;;;13.54;77.58;98191.18;1677069;83;25438;-92
2021/05/25 12:13:09;;;;;;;;;;;;;;;13.53;77.56;98189.03;1673573;83;20308;-92
2021/05/25 12:15:48;;;;;;;;;;;;;;;13.51;77.55;98189.66;1696200;83;24844;-92
2021/05/25 12:18:27;;;;;;;;;;;;;;;13.52;77.54;98188.70;1670859;83;21955;-90
2021/05/25 12:21:05;;;;;;;;;;;;;;;13.52;77.53;98196.59;1677242;83;25965;-90
2021/05/25 12:23:36;;;;;;;;;;;;;;;13.50;77.51;98194.56;1671009;83;24410;-92
2021/05/25 12:26:06;;;;;;;;;;;;;;;13.48;77.50;98194.33;1691619;83;20833;-92
2021/05/25 12:28:46;;;;;;;;;;;;;;;13.55;77.49;98196.80;1679603;83;24776;-92
2021/05/25 12:31:11;;;;;;;;;;;;;;;13.56;77.49;98191.89;1679237;83;22087;-92
2021/05/25 12:33:56;;;;;;;;;;;;;;;13.61;77.48;98198.42;1670929;83;26188;-88
2021/05/25 12:36:34;;;;;;;;;;;;;;;13.68;77.50;98206.15;1671212;83;24541;-91
2021/05/25 12:39:30;;;;;;;;;;;;;;;13.80;77.53;98205.58;1675356;83;20274;-88
2021/05/25 12:41:54;;;;;;;;;;;;;;;13.91;77.53;98212.53;1712982;82;24205;-89
2021/05/25 12:44:20;;;;;;;;;;;;;;;13.97;77.55;98222.50;1707871;81;22217;-90
2021/05/25 12:46:51;;;;;;;;;;;;;;;13.99;77.57;98217.47;1707429;81;25947;-89
2021/05/25 12:49:36;;;;;;;;;;;;;;;14.06;77.58;98216.45;1714208;82;24692;-90
2021/05/25 12:52:20;;;;;;;;;;;;;;;14.09;77.57;98217.01;1703093;82;20379;-89
2021/05/25 12:55:04;;;;;;;;;;;;;;;14.10;77.54;98217.84;1710265;82;24846;-88
2021/05/25 12:57:47;;;;;;;;;;;;;;;14.11;77.44;98224.78;1717587;82;22013;-89
2021/05/25 13:00:32;;;;;;;;;;;;;;;14.03;77.42;98228.06;1711401;81;26762;-89
2021/05/25 13:02:59;;;;;;;;;;;;;;;13.98;77.37;98234.69;1710259;81;24462;-90
2021/05/25 13:05:43;;;;;;;;;;;;;;;13.95;77.35;98231.03;1708049;82;20646;-89
2021/05/25 13:08:08;;;;;;;;;;;;;;;13.86;77.31;98230.48;1716957;81;24942;-89
2021/05/25 13:10:50;;;;;;;;;;;;;;;13.87;77.26;98225.09;1705489;82;22824;-90
2021/05/25 13:13:17;;;;;;;;;;;;;;;13.93;77.25;98221.11;1716050;81;26894;-90
2021/05/25 13:15:49;;;;;;;;;;;;;;;13.99;77.25;98225.36;1712852;81;24416;-88
2021/05/25 13:18:19;;;;;;;;;;;;;;;14.05;77.28;98222.67;1712619;82;20305;-90